sensor_id;sensor_type;location;lat;lon;timestamp;P1;durP1;ratioP1;P2;durP2;ratioP2
72053;SDS011;59918;51.280;7.950;2022-07-23T00:00:52;21.83;;;14.20;;
72053;SDS011;59918;51.280;7.950;2022-07-23T00:03:18;26.25;;;15.35;;
72053;SDS011;59918;51.280;7.950;2022-07-23T00:05:43;23.08;;;14.52;;
72053;SDS011;59918;51.280;7.950;2022-07-23T00:08:08;23.98;;;14.93;;
72053;SDS011;59918;51.280;7.950;2022-07-23T00:10:34;20.00;;;14.40;;
72053;SDS011;59918;51.280;7.950;2022-07-23T00:12:59;23.60;;;13.75;;
72053;SDS011;59918;51.280;7.950;2022-07-23T00:15:24;22.48;;;14.38;;
72053;SDS011;59918;51.280;7.950;2022-07-23T00:17:50;20.45;;;14.48;;
72053;SDS011;59918;51.280;7.950;2022-07-23T00:20:17;22.17;;;14.95;;
72053;SDS011;59918;51.280;7.950;2022-07-23T00:22:53;21.60;;;15.43;;
72053;SDS011;59918;51.280;7.950;2022-07-23T00:25:20;31.25;;;17.17;;
72053;SDS011;59918;51.280;7.950;2022-07-23T00:27:46;25.52;;;17.25;;
72053;SDS011;59918;51.280;7.950;2022-07-23T00:30:12;30.67;;;19.15;;
72053;SDS011;59918;51.280;7.950;2022-07-23T00:32:54;25.02;;;17.50;;
72053;SDS011;59918;51.280;7.950;2022-07-23T00:35:21;27.85;;;17.63;;
72053;SDS011;59918;51.280;7.950;2022-07-23T00:37:47;24.27;;;17.63;;
72053;SDS011;59918;51.280;7.950;2022-07-23T00:40:12;29.42;;;18.38;;
72053;SDS011;59918;51.280;7.950;2022-07-23T00:42:38;30.65;;;18.13;;
72053;SDS011;59918;51.280;7.950;2022-07-23T00:45:04;28.92;;;18.27;;
72053;SDS011;59918;51.280;7.950;2022-07-23T00:47:29;30.70;;;19.08;;
72053;SDS011;59918;51.280;7.950;2022-07-23T00:49:55;32.45;;;19.30;;
72053;SDS011;59918;51.280;7.950;2022-07-23T00:52:20;28.88;;;19.23;;
72053;SDS011;59918;51.280;7.950;2022-07-23T00:54:45;33.17;;;20.38;;
72053;SDS011;59918;51.280;7.950;2022-07-23T00:57:11;31.60;;;19.75;;
72053;SDS011;59918;51.280;7.950;2022-07-23T00:59:38;34.25;;;19.50;;
72053;SDS011;59918;51.280;7.950;2022-07-23T01:02:03;41.25;;;21.58;;
72053;SDS011;59918;51.280;7.950;2022-07-23T01:04:29;34.63;;;20.08;;
72053;SDS011;59918;51.280;7.950;2022-07-23T01:06:54;35.85;;;20.90;;
72053;SDS011;59918;51.280;7.950;2022-07-23T01:09:19;37.10;;;22.38;;
72053;SDS011;59918;51.280;7.950;2022-07-23T01:11:45;42.97;;;21.98;;
72053;SDS011;59918;51.280;7.950;2022-07-23T01:14:11;39.45;;;21.83;;
72053;SDS011;59918;51.280;7.950;2022-07-23T01:16:37;36.20;;;21.77;;
72053;SDS011;59918;51.280;7.950;2022-07-23T01:19:02;37.22;;;22.33;;
72053;SDS011;59918;51.280;7.950;2022-07-23T01:21:28;36.80;;;22.00;;
72053;SDS011;59918;51.280;7.950;2022-07-23T01:23:54;39.45;;;21.88;;
72053;SDS011;59918;51.280;7.950;2022-07-23T01:26:19;35.30;;;21.20;;
72053;SDS011;59918;51.280;7.950;2022-07-23T01:28:44;41.13;;;23.10;;
72053;SDS011;59918;51.280;7.950;2022-07-23T01:31:10;42.80;;;23.40;;
72053;SDS011;59918;51.280;7.950;2022-07-23T01:33:35;43.60;;;23.25;;
72053;SDS011;59918;51.280;7.950;2022-07-23T01:36:00;40.38;;;23.00;;
72053;SDS011;59918;51.280;7.950;2022-07-23T01:38:25;42.90;;;23.17;;
72053;SDS011;59918;51.280;7.950;2022-07-23T01:40:51;40.33;;;23.60;;
72053;SDS011;59918;51.280;7.950;2022-07-23T01:43:16;56.90;;;25.48;;
72053;SDS011;59918;51.280;7.950;2022-07-23T01:45:41;68.57;;;28.65;;
72053;SDS011;59918;51.280;7.950;2022-07-23T01:48:07;69.68;;;28.90;;
72053;SDS011;59918;51.280;7.950;2022-07-23T01:50:32;71.43;;;28.58;;
72053;SDS011;59918;51.280;7.950;2022-07-23T01:52:57;64.07;;;28.42;;
72053;SDS011;59918;51.280;7.950;2022-07-23T01:55:22;67.82;;;30.73;;
72053;SDS011;59918;51.280;7.950;2022-07-23T01:57:48;59.13;;;28.13;;
72053;SDS011;59918;51.280;7.950;2022-07-23T02:00:13;60.17;;;27.05;;
72053;SDS011;59918;51.280;7.950;2022-07-23T02:02:39;55.80;;;26.13;;
72053;SDS011;59918;51.280;7.950;2022-07-23T02:05:04;50.55;;;24.60;;
72053;SDS011;59918;51.280;7.950;2022-07-23T02:07:29;60.90;;;26.30;;
72053;SDS011;59918;51.280;7.950;2022-07-23T02:09:55;55.33;;;25.75;;
72053;SDS011;59918;51.280;7.950;2022-07-23T02:12:22;60.17;;;26.60;;
72053;SDS011;59918;51.280;7.950;2022-07-23T02:14:47;60.58;;;26.83;;
72053;SDS011;59918;51.280;7.950;2022-07-23T02:17:13;54.13;;;25.48;;
72053;SDS011;59918;51.280;7.950;2022-07-23T02:19:38;53.72;;;25.80;;
72053;SDS011;59918;51.280;7.950;2022-07-23T02:22:03;45.08;;;24.75;;
72053;SDS011;59918;51.280;7.950;2022-07-23T02:24:28;53.65;;;25.02;;
72053;SDS011;59918;51.280;7.950;2022-07-23T02:26:54;51.95;;;25.08;;
72053;SDS011;59918;51.280;7.950;2022-07-23T02:29:19;49.47;;;25.67;;
72053;SDS011;59918;51.280;7.950;2022-07-23T02:31:44;52.67;;;25.13;;
72053;SDS011;59918;51.280;7.950;2022-07-23T02:34:09;57.25;;;25.48;;
72053;SDS011;59918;51.280;7.950;2022-07-23T02:36:35;48.40;;;23.40;;
72053;SDS011;59918;51.280;7.950;2022-07-23T02:39:00;50.17;;;22.40;;
72053;SDS011;59918;51.280;7.950;2022-07-23T02:41:26;49.13;;;22.52;;
72053;SDS011;59918;51.280;7.950;2022-07-23T02:43:51;48.05;;;24.25;;
72053;SDS011;59918;51.280;7.950;2022-07-23T02:46:16;49.90;;;24.65;;
72053;SDS011;59918;51.280;7.950;2022-07-23T02:48:41;44.40;;;23.88;;
72053;SDS011;59918;51.280;7.950;2022-07-23T02:51:07;56.00;;;25.65;;
72053;SDS011;59918;51.280;7.950;2022-07-23T02:53:32;48.38;;;23.88;;
72053;SDS011;59918;51.280;7.950;2022-07-23T02:55:57;51.58;;;24.88;;
72053;SDS011;59918;51.280;7.950;2022-07-23T02:58:22;51.38;;;24.00;;
72053;SDS011;59918;51.280;7.950;2022-07-23T03:00:48;48.85;;;24.80;;
72053;SDS011;59918;51.280;7.950;2022-07-23T03:03:13;55.28;;;26.27;;
72053;SDS011;59918;51.280;7.950;2022-07-23T03:05:38;47.00;;;23.88;;
72053;SDS011;59918;51.280;7.950;2022-07-23T03:08:04;51.42;;;24.73;;
72053;SDS011;59918;51.280;7.950;2022-07-23T03:10:29;50.45;;;25.67;;
72053;SDS011;59918;51.280;7.950;2022-07-23T03:12:54;47.53;;;23.83;;
72053;SDS011;59918;51.280;7.950;2022-07-23T03:15:24;56.65;;;24.45;;
72053;SDS011;59918;51.280;7.950;2022-07-23T03:17:49;48.97;;;24.88;;
72053;SDS011;59918;51.280;7.950;2022-07-23T03:20:14;50.45;;;24.73;;
72053;SDS011;59918;51.280;7.950;2022-07-23T03:22:40;48.75;;;24.70;;
72053;SDS011;59918;51.280;7.950;2022-07-23T03:25:05;45.35;;;22.83;;
72053;SDS011;59918;51.280;7.950;2022-07-23T03:27:34;45.10;;;24.02;;
72053;SDS011;59918;51.280;7.950;2022-07-23T03:29:59;44.72;;;22.95;;
72053;SDS011;59918;51.280;7.950;2022-07-23T03:32:25;50.58;;;23.40;;
72053;SDS011;59918;51.280;7.950;2022-07-23T03:34:50;47.70;;;24.15;;
72053;SDS011;59918;51.280;7.950;2022-07-23T03:37:16;43.83;;;22.77;;
72053;SDS011;59918;51.280;7.950;2022-07-23T03:39:42;47.95;;;24.27;;
72053;SDS011;59918;51.280;7.950;2022-07-23T03:42:08;46.67;;;22.25;;
72053;SDS011;59918;51.280;7.950;2022-07-23T03:44:34;44.83;;;23.23;;
72053;SDS011;59918;51.280;7.950;2022-07-23T03:47:00;42.33;;;22.75;;
72053;SDS011;59918;51.280;7.950;2022-07-23T03:49:25;41.03;;;20.77;;
72053;SDS011;59918;51.280;7.950;2022-07-23T03:51:53;55.33;;;23.92;;
72053;SDS011;59918;51.280;7.950;2022-07-23T03:54:18;45.10;;;23.15;;
72053;SDS011;59918;51.280;7.950;2022-07-23T03:56:43;42.17;;;22.05;;
72053;SDS011;59918;51.280;7.950;2022-07-23T03:59:09;43.67;;;21.70;;
72053;SDS011;59918;51.280;7.950;2022-07-23T04:01:35;50.85;;;24.25;;
72053;SDS011;59918;51.280;7.950;2022-07-23T04:04:01;49.08;;;22.83;;
72053;SDS011;59918;51.280;7.950;2022-07-23T04:06:26;43.83;;;22.40;;
72053;SDS011;59918;51.280;7.950;2022-07-23T04:08:52;41.33;;;22.25;;
72053;SDS011;59918;51.280;7.950;2022-07-23T04:11:17;45.70;;;22.95;;
72053;SDS011;59918;51.280;7.950;2022-07-23T04:13:42;46.80;;;22.48;;
72053;SDS011;59918;51.280;7.950;2022-07-23T04:16:08;46.85;;;22.38;;
72053;SDS011;59918;51.280;7.950;2022-07-23T04:18:33;40.20;;;22.35;;
72053;SDS011;59918;51.280;7.950;2022-07-23T04:20:58;42.30;;;23.40;;
72053;SDS011;59918;51.280;7.950;2022-07-23T04:23:24;44.75;;;22.92;;
72053;SDS011;59918;51.280;7.950;2022-07-23T04:25:49;40.78;;;22.10;;
72053;SDS011;59918;51.280;7.950;2022-07-23T04:28:14;41.25;;;21.67;;
72053;SDS011;59918;51.280;7.950;2022-07-23T04:30:40;42.88;;;23.30;;
72053;SDS011;59918;51.280;7.950;2022-07-23T04:33:05;42.72;;;23.48;;
72053;SDS011;59918;51.280;7.950;2022-07-23T04:35:30;44.53;;;25.23;;
72053;SDS011;59918;51.280;7.950;2022-07-23T04:37:55;39.50;;;23.63;;
72053;SDS011;59918;51.280;7.950;2022-07-23T04:40:21;46.00;;;23.88;;
72053;SDS011;59918;51.280;7.950;2022-07-23T04:42:46;42.72;;;23.50;;
72053;SDS011;59918;51.280;7.950;2022-07-23T04:45:11;44.67;;;24.10;;
72053;SDS011;59918;51.280;7.950;2022-07-23T04:47:36;49.92;;;24.45;;
72053;SDS011;59918;51.280;7.950;2022-07-23T04:50:02;41.50;;;23.65;;
72053;SDS011;59918;51.280;7.950;2022-07-23T04:52:27;37.25;;;21.92;;
72053;SDS011;59918;51.280;7.950;2022-07-23T04:54:52;45.30;;;23.48;;
72053;SDS011;59918;51.280;7.950;2022-07-23T04:57:20;36.17;;;21.20;;
72053;SDS011;59918;51.280;7.950;2022-07-23T04:59:46;36.75;;;19.83;;
72053;SDS011;59918;51.280;7.950;2022-07-23T05:02:11;32.33;;;20.40;;
72053;SDS011;59918;51.280;7.950;2022-07-23T05:04:36;37.00;;;20.95;;
72053;SDS011;59918;51.280;7.950;2022-07-23T05:07:01;41.30;;;22.58;;
72053;SDS011;59918;51.280;7.950;2022-07-23T05:09:27;40.42;;;23.02;;
72053;SDS011;59918;51.280;7.950;2022-07-23T05:11:52;40.45;;;22.15;;
72053;SDS011;59918;51.280;7.950;2022-07-23T05:14:17;39.58;;;21.90;;
72053;SDS011;59918;51.280;7.950;2022-07-23T05:16:42;39.95;;;22.90;;
72053;SDS011;59918;51.280;7.950;2022-07-23T05:19:08;43.05;;;22.88;;
72053;SDS011;59918;51.280;7.950;2022-07-23T05:21:33;40.10;;;22.20;;
72053;SDS011;59918;51.280;7.950;2022-07-23T05:23:59;44.67;;;22.85;;
72053;SDS011;59918;51.280;7.950;2022-07-23T05:26:24;37.30;;;21.85;;
72053;SDS011;59918;51.280;7.950;2022-07-23T05:28:50;37.85;;;21.13;;
72053;SDS011;59918;51.280;7.950;2022-07-23T05:31:15;36.40;;;19.48;;
72053;SDS011;59918;51.280;7.950;2022-07-23T05:33:41;36.22;;;20.60;;
72053;SDS011;59918;51.280;7.950;2022-07-23T05:36:06;37.38;;;21.10;;
72053;SDS011;59918;51.280;7.950;2022-07-23T05:38:32;36.35;;;20.27;;
72053;SDS011;59918;51.280;7.950;2022-07-23T05:40:57;42.60;;;19.58;;
72053;SDS011;59918;51.280;7.950;2022-07-23T05:43:23;37.65;;;19.75;;
72053;SDS011;59918;51.280;7.950;2022-07-23T05:45:48;38.08;;;21.05;;
72053;SDS011;59918;51.280;7.950;2022-07-23T05:48:13;40.03;;;22.30;;
72053;SDS011;59918;51.280;7.950;2022-07-23T05:50:39;35.65;;;20.80;;
72053;SDS011;59918;51.280;7.950;2022-07-23T05:53:04;33.22;;;20.02;;
72053;SDS011;59918;51.280;7.950;2022-07-23T05:55:29;30.60;;;18.92;;
72053;SDS011;59918;51.280;7.950;2022-07-23T05:57:55;26.90;;;19.00;;
72053;SDS011;59918;51.280;7.950;2022-07-23T06:00:21;29.63;;;19.20;;
72053;SDS011;59918;51.280;7.950;2022-07-23T06:02:46;32.90;;;20.30;;
72053;SDS011;59918;51.280;7.950;2022-07-23T06:05:12;37.78;;;21.30;;
72053;SDS011;59918;51.280;7.950;2022-07-23T06:07:37;33.03;;;20.55;;
72053;SDS011;59918;51.280;7.950;2022-07-23T06:10:03;37.05;;;22.15;;
72053;SDS011;59918;51.280;7.950;2022-07-23T06:12:28;34.25;;;20.45;;
72053;SDS011;59918;51.280;7.950;2022-07-23T06:14:54;36.05;;;20.52;;
72053;SDS011;59918;51.280;7.950;2022-07-23T06:17:19;32.00;;;19.70;;
72053;SDS011;59918;51.280;7.950;2022-07-23T06:19:44;32.03;;;20.55;;
72053;SDS011;59918;51.280;7.950;2022-07-23T06:22:10;32.65;;;20.55;;
72053;SDS011;59918;51.280;7.950;2022-07-23T06:24:35;35.08;;;21.73;;
72053;SDS011;59918;51.280;7.950;2022-07-23T06:27:00;33.17;;;19.98;;
72053;SDS011;59918;51.280;7.950;2022-07-23T06:29:25;32.05;;;20.20;;
72053;SDS011;59918;51.280;7.950;2022-07-23T06:31:51;34.90;;;20.92;;
72053;SDS011;59918;51.280;7.950;2022-07-23T06:34:16;35.08;;;21.00;;
72053;SDS011;59918;51.280;7.950;2022-07-23T06:36:41;29.42;;;19.55;;
72053;SDS011;59918;51.280;7.950;2022-07-23T06:39:06;29.92;;;20.77;;
72053;SDS011;59918;51.280;7.950;2022-07-23T06:41:32;31.65;;;20.02;;
72053;SDS011;59918;51.280;7.950;2022-07-23T06:43:57;28.27;;;19.25;;
72053;SDS011;59918;51.280;7.950;2022-07-23T06:46:22;27.23;;;19.70;;
72053;SDS011;59918;51.280;7.950;2022-07-23T06:48:47;27.05;;;18.70;;
72053;SDS011;59918;51.280;7.950;2022-07-23T06:51:13;25.27;;;17.10;;
72053;SDS011;59918;51.280;7.950;2022-07-23T06:53:38;24.65;;;16.60;;
72053;SDS011;59918;51.280;7.950;2022-07-23T06:56:03;22.80;;;15.95;;
72053;SDS011;59918;51.280;7.950;2022-07-23T06:58:29;22.58;;;15.50;;
72053;SDS011;59918;51.280;7.950;2022-07-23T07:00:54;22.40;;;15.07;;
72053;SDS011;59918;51.280;7.950;2022-07-23T07:03:20;22.45;;;14.10;;
72053;SDS011;59918;51.280;7.950;2022-07-23T07:05:45;17.50;;;13.13;;
72053;SDS011;59918;51.280;7.950;2022-07-23T07:08:10;19.75;;;12.98;;
72053;SDS011;59918;51.280;7.950;2022-07-23T07:10:35;17.13;;;12.70;;
72053;SDS011;59918;51.280;7.950;2022-07-23T07:13:01;15.52;;;12.32;;
72053;SDS011;59918;51.280;7.950;2022-07-23T07:15:26;15.55;;;12.52;;
72053;SDS011;59918;51.280;7.950;2022-07-23T07:17:51;14.35;;;12.45;;
72053;SDS011;59918;51.280;7.950;2022-07-23T07:20:17;15.70;;;11.60;;
72053;SDS011;59918;51.280;7.950;2022-07-23T07:22:42;15.85;;;11.40;;
72053;SDS011;59918;51.280;7.950;2022-07-23T07:25:10;15.68;;;11.43;;
72053;SDS011;59918;51.280;7.950;2022-07-23T07:27:35;18.98;;;12.35;;
72053;SDS011;59918;51.280;7.950;2022-07-23T07:30:00;15.43;;;11.25;;
72053;SDS011;59918;51.280;7.950;2022-07-23T07:32:26;14.77;;;10.07;;
72053;SDS011;59918;51.280;7.950;2022-07-23T07:34:51;14.63;;;11.65;;
72053;SDS011;59918;51.280;7.950;2022-07-23T07:37:16;15.15;;;10.55;;
72053;SDS011;59918;51.280;7.950;2022-07-23T07:39:42;15.23;;;11.05;;
72053;SDS011;59918;51.280;7.950;2022-07-23T07:42:07;17.70;;;11.55;;
72053;SDS011;59918;51.280;7.950;2022-07-23T07:44:32;14.80;;;10.57;;
72053;SDS011;59918;51.280;7.950;2022-07-23T07:46:57;17.80;;;10.90;;
72053;SDS011;59918;51.280;7.950;2022-07-23T07:49:23;12.23;;;9.55;;
72053;SDS011;59918;51.280;7.950;2022-07-23T07:51:48;16.00;;;10.00;;
72053;SDS011;59918;51.280;7.950;2022-07-23T07:54:13;17.38;;;10.55;;
72053;SDS011;59918;51.280;7.950;2022-07-23T07:56:38;14.30;;;12.02;;
72053;SDS011;59918;51.280;7.950;2022-07-23T07:59:04;15.20;;;11.55;;
72053;SDS011;59918;51.280;7.950;2022-07-23T08:01:29;15.27;;;11.73;;
72053;SDS011;59918;51.280;7.950;2022-07-23T08:03:55;17.80;;;11.43;;
72053;SDS011;59918;51.280;7.950;2022-07-23T08:06:20;14.80;;;11.82;;
72053;SDS011;59918;51.280;7.950;2022-07-23T08:08:45;19.52;;;12.35;;
72053;SDS011;59918;51.280;7.950;2022-07-23T08:11:10;16.33;;;12.32;;
72053;SDS011;59918;51.280;7.950;2022-07-23T08:13:36;15.20;;;11.85;;
72053;SDS011;59918;51.280;7.950;2022-07-23T08:16:01;16.02;;;11.63;;
72053;SDS011;59918;51.280;7.950;2022-07-23T08:18:26;16.52;;;10.65;;
72053;SDS011;59918;51.280;7.950;2022-07-23T08:20:51;11.10;;;9.93;;
72053;SDS011;59918;51.280;7.950;2022-07-23T08:23:17;11.52;;;9.65;;
72053;SDS011;59918;51.280;7.950;2022-07-23T08:25:42;13.45;;;10.50;;
72053;SDS011;59918;51.280;7.950;2022-07-23T08:28:08;15.52;;;11.93;;
72053;SDS011;59918;51.280;7.950;2022-07-23T08:30:35;12.35;;;10.82;;
72053;SDS011;59918;51.280;7.950;2022-07-23T08:33:03;12.18;;;9.70;;
72053;SDS011;59918;51.280;7.950;2022-07-23T08:35:31;12.85;;;10.07;;
72053;SDS011;59918;51.280;7.950;2022-07-23T08:37:58;13.35;;;11.00;;
72053;SDS011;59918;51.280;7.950;2022-07-23T08:40:28;13.05;;;10.65;;
72053;SDS011;59918;51.280;7.950;2022-07-23T08:42:56;14.38;;;11.23;;
72053;SDS011;59918;51.280;7.950;2022-07-23T08:45:22;11.95;;;9.93;;
72053;SDS011;59918;51.280;7.950;2022-07-23T08:47:50;14.40;;;10.43;;
72053;SDS011;59918;51.280;7.950;2022-07-23T08:50:17;15.38;;;10.90;;
72053;SDS011;59918;51.280;7.950;2022-07-23T08:52:43;17.85;;;11.10;;
72053;SDS011;59918;51.280;7.950;2022-07-23T08:55:08;12.80;;;10.73;;
72053;SDS011;59918;51.280;7.950;2022-07-23T08:57:34;11.38;;;10.20;;
72053;SDS011;59918;51.280;7.950;2022-07-23T08:59:59;12.43;;;11.13;;
72053;SDS011;59918;51.280;7.950;2022-07-23T09:02:25;12.15;;;10.25;;
72053;SDS011;59918;51.280;7.950;2022-07-23T09:04:50;11.00;;;9.70;;
72053;SDS011;59918;51.280;7.950;2022-07-23T09:07:15;13.18;;;10.20;;
72053;SDS011;59918;51.280;7.950;2022-07-23T09:09:40;11.90;;;9.80;;
72053;SDS011;59918;51.280;7.950;2022-07-23T09:12:07;13.15;;;9.75;;
72053;SDS011;59918;51.280;7.950;2022-07-23T09:17:13;11.60;;;10.23;;
72053;SDS011;59918;51.280;7.950;2022-07-23T09:19:42;12.68;;;10.15;;
72053;SDS011;59918;51.280;7.950;2022-07-23T09:22:26;13.93;;;11.10;;
72053;SDS011;59918;51.280;7.950;2022-07-23T09:27:45;12.88;;;11.23;;
72053;SDS011;59918;51.280;7.950;2022-07-23T09:30:14;13.88;;;10.65;;
72053;SDS011;59918;51.280;7.950;2022-07-23T09:32:40;12.48;;;11.18;;
72053;SDS011;59918;51.280;7.950;2022-07-23T09:35:06;11.73;;;9.90;;
72053;SDS011;59918;51.280;7.950;2022-07-23T09:37:32;16.08;;;10.43;;
72053;SDS011;59918;51.280;7.950;2022-07-23T09:40:04;14.57;;;9.35;;
72053;SDS011;59918;51.280;7.950;2022-07-23T09:42:31;12.93;;;10.18;;
72053;SDS011;59918;51.280;7.950;2022-07-23T09:44:57;13.07;;;9.35;;
72053;SDS011;59918;51.280;7.950;2022-07-23T09:47:23;10.13;;;9.23;;
72053;SDS011;59918;51.280;7.950;2022-07-23T09:52:26;17.17;;;9.88;;
72053;SDS011;59918;51.280;7.950;2022-07-23T09:54:51;13.00;;;9.27;;
72053;SDS011;59918;51.280;7.950;2022-07-23T09:57:23;12.18;;;9.55;;
72053;SDS011;59918;51.280;7.950;2022-07-23T09:59:48;10.32;;;8.80;;
72053;SDS011;59918;51.280;7.950;2022-07-23T10:02:14;9.50;;;8.57;;
72053;SDS011;59918;51.280;7.950;2022-07-23T10:04:39;9.23;;;7.70;;
72053;SDS011;59918;51.280;7.950;2022-07-23T10:07:05;9.70;;;8.25;;
72053;SDS011;59918;51.280;7.950;2022-07-23T10:09:33;8.82;;;7.40;;
72053;SDS011;59918;51.280;7.950;2022-07-23T10:12:00;9.40;;;8.40;;
72053;SDS011;59918;51.280;7.950;2022-07-23T10:14:27;9.93;;;8.23;;
72053;SDS011;59918;51.280;7.950;2022-07-23T10:16:53;7.93;;;7.13;;
72053;SDS011;59918;51.280;7.950;2022-07-23T10:19:19;8.25;;;7.20;;
72053;SDS011;59918;51.280;7.950;2022-07-23T10:21:52;6.65;;;6.05;;
72053;SDS011;59918;51.280;7.950;2022-07-23T10:24:23;7.68;;;6.70;;
72053;SDS011;59918;51.280;7.950;2022-07-23T10:35:37;7.28;;;6.68;;
72053;SDS011;59918;51.280;7.950;2022-07-23T10:41:01;17.23;;;9.27;;
72053;SDS011;59918;51.280;7.950;2022-07-23T10:43:29;8.35;;;7.55;;
72053;SDS011;59918;51.280;7.950;2022-07-23T10:45:56;8.77;;;7.90;;
72053;SDS011;59918;51.280;7.950;2022-07-23T10:48:46;10.57;;;8.98;;
72053;SDS011;59918;51.280;7.950;2022-07-23T10:54:42;8.95;;;7.78;;
72053;SDS011;59918;51.280;7.950;2022-07-23T10:57:12;9.70;;;7.88;;
72053;SDS011;59918;51.280;7.950;2022-07-23T11:02:26;9.48;;;8.50;;
72053;SDS011;59918;51.280;7.950;2022-07-23T11:04:56;10.32;;;9.30;;
72053;SDS011;59918;51.280;7.950;2022-07-23T11:07:25;9.30;;;8.40;;
72053;SDS011;59918;51.280;7.950;2022-07-23T11:09:52;10.60;;;9.55;;
72053;SDS011;59918;51.280;7.950;2022-07-23T11:17:30;8.85;;;7.93;;
72053;SDS011;59918;51.280;7.950;2022-07-23T11:22:39;8.05;;;7.20;;
72053;SDS011;59918;51.280;7.950;2022-07-23T11:25:07;12.27;;;8.88;;
72053;SDS011;59918;51.280;7.950;2022-07-23T11:27:40;8.30;;;7.63;;
72053;SDS011;59918;51.280;7.950;2022-07-23T11:30:08;9.15;;;8.18;;
72053;SDS011;59918;51.280;7.950;2022-07-23T11:32:35;11.18;;;10.18;;
72053;SDS011;59918;51.280;7.950;2022-07-23T11:35:02;10.18;;;9.27;;
72053;SDS011;59918;51.280;7.950;2022-07-23T11:37:35;9.07;;;8.23;;
72053;SDS011;59918;51.280;7.950;2022-07-23T11:40:04;8.88;;;8.18;;
72053;SDS011;59918;51.280;7.950;2022-07-23T11:42:55;8.75;;;8.15;;
72053;SDS011;59918;51.280;7.950;2022-07-23T11:45:23;8.55;;;7.82;;
72053;SDS011;59918;51.280;7.950;2022-07-23T11:50:22;9.57;;;8.50;;
72053;SDS011;59918;51.280;7.950;2022-07-23T11:52:48;11.63;;;10.63;;
72053;SDS011;59918;51.280;7.950;2022-07-23T11:55:13;10.02;;;9.13;;
72053;SDS011;59918;51.280;7.950;2022-07-23T11:57:39;11.17;;;10.17;;
72053;SDS011;59918;51.280;7.950;2022-07-23T12:00:22;10.52;;;8.70;;
72053;SDS011;59918;51.280;7.950;2022-07-23T12:02:50;11.25;;;10.30;;
72053;SDS011;59918;51.280;7.950;2022-07-23T12:05:19;12.27;;;11.13;;
72053;SDS011;59918;51.280;7.950;2022-07-23T12:07:47;10.88;;;9.98;;
72053;SDS011;59918;51.280;7.950;2022-07-23T12:10:15;10.15;;;9.25;;
72053;SDS011;59918;51.280;7.950;2022-07-23T12:12:50;9.95;;;8.98;;
72053;SDS011;59918;51.280;7.950;2022-07-23T12:15:18;11.35;;;10.38;;
72053;SDS011;59918;51.280;7.950;2022-07-23T12:17:46;9.95;;;9.15;;
72053;SDS011;59918;51.280;7.950;2022-07-23T12:20:13;10.63;;;9.35;;
72053;SDS011;59918;51.280;7.950;2022-07-23T12:23:09;10.57;;;9.68;;
72053;SDS011;59918;51.280;7.950;2022-07-23T12:25:37;10.50;;;9.52;;
72053;SDS011;59918;51.280;7.950;2022-07-23T12:28:05;9.52;;;8.75;;
72053;SDS011;59918;51.280;7.950;2022-07-23T12:30:33;13.77;;;12.57;;
72053;SDS011;59918;51.280;7.950;2022-07-23T12:33:02;12.13;;;11.13;;
72053;SDS011;59918;51.280;7.950;2022-07-23T12:35:33;14.98;;;13.45;;
72053;SDS011;59918;51.280;7.950;2022-07-23T12:38:04;13.30;;;12.20;;
72053;SDS011;59918;51.280;7.950;2022-07-23T12:40:35;11.73;;;10.70;;
72053;SDS011;59918;51.280;7.950;2022-07-23T12:46:08;12.60;;;11.40;;
72053;SDS011;59918;51.280;7.950;2022-07-23T12:48:50;12.68;;;11.57;;
72053;SDS011;59918;51.280;7.950;2022-07-23T12:53:50;14.18;;;13.07;;
72053;SDS011;59918;51.280;7.950;2022-07-23T12:58:49;11.40;;;10.50;;
72053;SDS011;59918;51.280;7.950;2022-07-23T13:03:56;12.43;;;11.43;;
72053;SDS011;59918;51.280;7.950;2022-07-23T13:06:28;10.27;;;9.45;;
72053;SDS011;59918;51.280;7.950;2022-07-23T13:08:55;9.75;;;9.05;;
72053;SDS011;59918;51.280;7.950;2022-07-23T13:11:20;10.30;;;9.50;;
72053;SDS011;59918;51.280;7.950;2022-07-23T13:13:46;9.70;;;9.00;;
72053;SDS011;59918;51.280;7.950;2022-07-23T13:16:11;9.10;;;8.40;;
72053;SDS011;59918;51.280;7.950;2022-07-23T13:18:36;9.25;;;8.48;;
72053;SDS011;59918;51.280;7.950;2022-07-23T13:21:01;9.03;;;8.33;;
72053;SDS011;59918;51.280;7.950;2022-07-23T13:23:27;7.80;;;7.13;;
72053;SDS011;59918;51.280;7.950;2022-07-23T13:25:53;7.88;;;7.28;;
72053;SDS011;59918;51.280;7.950;2022-07-23T13:28:19;6.57;;;5.97;;
72053;SDS011;59918;51.280;7.950;2022-07-23T13:30:46;7.25;;;6.57;;
72053;SDS011;59918;51.280;7.950;2022-07-23T13:33:11;6.63;;;5.97;;
72053;SDS011;59918;51.280;7.950;2022-07-23T13:35:37;6.20;;;5.60;;
72053;SDS011;59918;51.280;7.950;2022-07-23T13:38:03;6.82;;;5.20;;
72053;SDS011;59918;51.280;7.950;2022-07-23T13:40:29;4.45;;;4.15;;
72053;SDS011;59918;51.280;7.950;2022-07-23T13:42:54;4.57;;;4.15;;
72053;SDS011;59918;51.280;7.950;2022-07-23T13:45:20;6.40;;;4.97;;
72053;SDS011;59918;51.280;7.950;2022-07-23T13:47:45;4.18;;;3.97;;
72053;SDS011;59918;51.280;7.950;2022-07-23T13:50:11;3.33;;;3.13;;
72053;SDS011;59918;51.280;7.950;2022-07-23T13:52:36;3.42;;;3.13;;
72053;SDS011;59918;51.280;7.950;2022-07-23T13:55:03;3.22;;;2.70;;
72053;SDS011;59918;51.280;7.950;2022-07-23T13:57:30;3.05;;;2.85;;
72053;SDS011;59918;51.280;7.950;2022-07-23T13:59:56;2.75;;;2.55;;
72053;SDS011;59918;51.280;7.950;2022-07-23T14:02:22;2.92;;;2.72;;
72053;SDS011;59918;51.280;7.950;2022-07-23T14:04:47;3.75;;;2.55;;
72053;SDS011;59918;51.280;7.950;2022-07-23T14:07:16;2.42;;;2.22;;
72053;SDS011;59918;51.280;7.950;2022-07-23T14:09:42;2.53;;;2.38;;
72053;SDS011;59918;51.280;7.950;2022-07-23T14:12:08;2.45;;;2.30;;
72053;SDS011;59918;51.280;7.950;2022-07-23T14:14:35;2.85;;;2.53;;
72053;SDS011;59918;51.280;7.950;2022-07-23T14:17:00;2.40;;;2.30;;
72053;SDS011;59918;51.280;7.950;2022-07-23T14:19:26;2.40;;;2.20;;
72053;SDS011;59918;51.280;7.950;2022-07-23T14:21:51;2.67;;;2.43;;
72053;SDS011;59918;51.280;7.950;2022-07-23T14:24:16;2.30;;;1.77;;
72053;SDS011;59918;51.280;7.950;2022-07-23T14:26:42;2.53;;;2.33;;
72053;SDS011;59918;51.280;7.950;2022-07-23T14:29:07;2.80;;;2.60;;
72053;SDS011;59918;51.280;7.950;2022-07-23T14:31:33;3.08;;;2.20;;
72053;SDS011;59918;51.280;7.950;2022-07-23T14:34:01;2.90;;;2.70;;
72053;SDS011;59918;51.280;7.950;2022-07-23T14:36:26;3.47;;;2.42;;
72053;SDS011;59918;51.280;7.950;2022-07-23T14:38:51;2.83;;;2.63;;
72053;SDS011;59918;51.280;7.950;2022-07-23T14:41:17;2.85;;;2.65;;
72053;SDS011;59918;51.280;7.950;2022-07-23T14:43:42;2.80;;;2.60;;
72053;SDS011;59918;51.280;7.950;2022-07-23T14:46:08;2.85;;;2.55;;
72053;SDS011;59918;51.280;7.950;2022-07-23T14:48:33;3.55;;;2.40;;
72053;SDS011;59918;51.280;7.950;2022-07-23T14:50:59;4.87;;;2.53;;
72053;SDS011;59918;51.280;7.950;2022-07-23T14:53:24;5.47;;;2.87;;
72053;SDS011;59918;51.280;7.950;2022-07-23T14:55:49;3.30;;;2.45;;
72053;SDS011;59918;51.280;7.950;2022-07-23T14:58:14;2.70;;;2.50;;
72053;SDS011;59918;51.280;7.950;2022-07-23T15:00:40;2.93;;;2.73;;
72053;SDS011;59918;51.280;7.950;2022-07-23T15:03:05;3.08;;;2.85;;
72053;SDS011;59918;51.280;7.950;2022-07-23T15:05:30;2.70;;;2.50;;
72053;SDS011;59918;51.280;7.950;2022-07-23T15:08:16;2.65;;;2.53;;
72053;SDS011;59918;51.280;7.950;2022-07-23T15:10:42;2.60;;;2.40;;